createdAt,value
2022-12-14T00:02:10.787Z,61.21
2022-12-14T00:04:39.148Z,61.90
2022-12-14T00:07:07.497Z,62.60
2022-12-14T00:09:36.515Z,63.74
2022-12-14T00:12:05.487Z,63.36
2022-12-14T00:14:34.174Z,62.88
2022-12-14T00:17:02.391Z,62.16
2022-12-14T00:19:30.641Z,61.40
2022-12-14T00:21:58.929Z,60.80
2022-12-14T00:24:27.153Z,60.48
2022-12-14T00:26:55.524Z,59.34
2022-12-14T00:29:23.787Z,58.58
2022-12-14T00:31:52.147Z,58.76
2022-12-14T00:34:20.499Z,59.55
2022-12-14T00:36:48.783Z,60.08
2022-12-14T00:39:17.228Z,60.86
2022-12-14T00:41:45.531Z,60.95
2022-12-14T00:44:13.842Z,61.46
2022-12-14T00:46:42.248Z,61.34
2022-12-14T00:49:11.191Z,62.53
2022-12-14T00:51:39.514Z,63.64
2022-12-14T00:54:07.768Z,63.12
2022-12-14T00:56:36.287Z,62.96
2022-12-14T00:59:04.644Z,62.31
2022-12-14T01:01:33.091Z,61.65
2022-12-14T01:04:21.715Z,61.16
2022-12-14T01:06:52.026Z,60.57
2022-12-14T01:09:22.120Z,59.56
2022-12-14T01:11:50.666Z,58.56
2022-12-14T01:14:21.154Z,58.40
2022-12-14T01:16:49.454Z,59.24
2022-12-14T01:19:17.784Z,59.46
2022-12-14T01:21:46.276Z,59.66
2022-12-14T01:24:14.482Z,59.83
2022-12-14T01:26:42.826Z,60.97
2022-12-14T01:29:12.060Z,60.88
2022-12-14T01:31:40.403Z,61.58
2022-12-14T01:34:09.950Z,61.54
2022-12-14T01:36:39.555Z,61.62
2022-12-14T01:39:13.879Z,61.68
2022-12-14T01:41:52.996Z,62.76
2022-12-14T01:44:21.347Z,64.33
2022-12-14T01:47:22.823Z,64.04
2022-12-14T01:50:05.401Z,64.06
2022-12-14T01:52:36.499Z,63.25
2022-12-14T01:55:11.213Z,61.89
2022-12-14T01:57:47.058Z,61.54
2022-12-14T02:00:17.145Z,60.58
2022-12-14T02:02:54.818Z,59.37
2022-12-14T02:05:25.158Z,57.98
2022-12-14T02:07:56.619Z,57.53
2022-12-14T02:10:27.878Z,57.65
2022-12-14T02:13:05.803Z,57.94
2022-12-14T02:15:35.177Z,58.18
2022-12-14T02:18:06.126Z,58.68
2022-12-14T02:21:09.731Z,59.11
2022-12-14T02:23:47.358Z,59.65
2022-12-14T02:26:21.375Z,60.11
2022-12-14T02:29:02.010Z,61.46
2022-12-14T02:31:33.383Z,61.46
2022-12-14T02:34:34.055Z,61.64
2022-12-14T02:37:11.303Z,63.52
2022-12-14T02:40:00.920Z,65.35
2022-12-14T02:43:08.162Z,63.85
2022-12-14T02:45:50.726Z,63.99
2022-12-14T02:48:23.067Z,63.32
2022-12-14T02:50:57.409Z,64.33
2022-12-14T02:53:39.325Z,61.46
2022-12-14T02:56:13.233Z,61.17
2022-12-14T02:58:51.156Z,60.19
2022-12-14T03:01:28.287Z,59.00
2022-12-14T03:03:56.721Z,57.67
2022-12-14T03:06:28.669Z,57.44
2022-12-14T03:09:04.963Z,57.57
2022-12-14T03:11:51.550Z,58.09
2022-12-14T03:14:27.460Z,59.13
2022-12-14T03:17:02.013Z,59.76
2022-12-14T03:19:38.223Z,60.19
2022-12-14T03:22:15.336Z,60.73
2022-12-14T03:24:49.150Z,61.18
2022-12-14T03:27:25.503Z,62.97
2022-12-14T03:30:00.838Z,64.90
2022-12-14T03:32:33.382Z,64.72
2022-12-14T03:35:06.971Z,63.81
2022-12-14T03:38:02.659Z,63.51
2022-12-14T03:40:37.363Z,63.42
2022-12-14T03:43:18.743Z,60.75
2022-12-14T03:46:10.254Z,60.91
2022-12-14T03:48:50.131Z,59.60
2022-12-14T03:51:38.044Z,57.43
2022-12-14T03:54:17.159Z,56.92
2022-12-14T03:57:20.847Z,57.16
2022-12-14T04:00:00.753Z,57.22
2022-12-14T04:02:42.786Z,57.95
2022-12-14T04:05:30.581Z,58.36
2022-12-14T04:08:11.632Z,59.09
2022-12-14T04:11:04.095Z,59.74
2022-12-14T04:13:57.201Z,60.09
2022-12-14T04:16:50.009Z,60.23
2022-12-14T04:19:29.426Z,60.53
2022-12-14T04:22:05.240Z,61.32
2022-12-14T04:24:58.945Z,61.61
2022-12-14T04:27:42.790Z,65.62
2022-12-14T04:30:13.591Z,72.98
2022-12-14T04:32:48.923Z,71.15
2022-12-14T04:35:26.239Z,66.27
2022-12-14T04:38:08.280Z,59.94
2022-12-14T04:40:47.622Z,55.12
2022-12-14T04:43:21.823Z,53.46
2022-12-14T04:46:01.336Z,53.17
2022-12-14T04:48:36.279Z,53.40
2022-12-14T04:51:23.636Z,53.79
2022-12-14T04:53:59.886Z,54.00
2022-12-14T04:56:53.913Z,54.36
2022-12-14T04:59:23.875Z,55.13
2022-12-14T05:02:15.531Z,56.01
2022-12-14T05:04:59.353Z,56.21
2022-12-14T05:07:38.360Z,56.93
2022-12-14T05:10:11.139Z,57.46
2022-12-14T05:12:47.607Z,58.18
2022-12-14T05:15:24.938Z,58.62
2022-12-14T05:17:53.786Z,58.91
2022-12-14T05:20:24.648Z,59.32
2022-12-14T05:22:53.095Z,59.63
2022-12-14T05:25:21.324Z,59.99
2022-12-14T05:27:49.610Z,60.32
2022-12-14T05:30:18.041Z,60.64
2022-12-14T05:32:46.632Z,60.91
2022-12-14T05:35:15.731Z,61.21
2022-12-14T05:37:44.304Z,61.37
2022-12-14T05:40:12.984Z,61.59
2022-12-14T05:42:45.360Z,61.78
2022-12-14T05:45:16.385Z,61.88
2022-12-14T05:47:45.299Z,64.88
2022-12-14T05:50:13.546Z,71.74
2022-12-14T05:52:41.787Z,70.22
2022-12-14T05:55:10.116Z,66.03
2022-12-14T05:57:38.608Z,63.31
2022-12-14T06:00:07.713Z,59.20
2022-12-14T06:02:36.065Z,54.25
2022-12-14T06:05:04.958Z,52.66
2022-12-14T06:07:33.287Z,52.42
2022-12-14T06:10:01.544Z,52.63
2022-12-14T06:12:30.573Z,53.04
2022-12-14T06:14:59.000Z,53.47
2022-12-14T06:17:27.279Z,53.99
2022-12-14T06:19:55.544Z,54.46
2022-12-14T06:22:24.975Z,54.95
2022-12-14T06:24:53.246Z,55.41
2022-12-14T06:27:21.511Z,56.03
2022-12-14T06:29:49.863Z,56.50
2022-12-14T06:32:18.353Z,56.96
2022-12-14T06:34:47.038Z,57.40
2022-12-14T06:37:15.378Z,57.82
2022-12-14T06:39:43.722Z,58.21
2022-12-14T06:42:11.995Z,58.61
2022-12-14T06:44:40.381Z,58.98
2022-12-14T06:47:09.044Z,59.33
2022-12-14T06:49:37.398Z,59.64
2022-12-14T06:52:05.708Z,60.01
2022-12-14T06:54:34.158Z,60.38
2022-12-14T06:57:02.536Z,60.77
2022-12-14T06:59:30.767Z,61.37
2022-12-14T07:01:59.334Z,61.64
2022-12-14T07:04:28.091Z,61.91
2022-12-14T07:06:56.624Z,64.39
2022-12-14T07:09:25.120Z,67.89
2022-12-14T07:11:53.503Z,64.32
2022-12-14T07:14:21.901Z,62.27
2022-12-14T07:16:50.306Z,59.72
2022-12-14T07:19:18.914Z,53.54
2022-12-14T07:21:47.218Z,52.69
2022-12-14T07:24:16.427Z,52.72
2022-12-14T07:26:44.808Z,53.89
2022-12-14T07:29:15.095Z,54.14
2022-12-14T07:31:43.936Z,55.63
2022-12-14T07:34:18.157Z,56.09
2022-12-14T07:36:50.846Z,57.41
2022-12-14T07:39:20.922Z,57.64
2022-12-14T07:41:50.750Z,58.11
2022-12-14T07:44:22.390Z,59.76
2022-12-14T07:46:51.074Z,61.04
2022-12-14T07:49:19.422Z,60.77
2022-12-14T07:51:47.797Z,60.94
2022-12-14T07:54:16.109Z,62.03
2022-12-14T07:56:44.699Z,64.98
2022-12-14T07:59:15.968Z,70.82
2022-12-14T08:01:45.122Z,70.16
2022-12-14T08:04:16.775Z,65.92
2022-12-14T08:06:47.037Z,59.94
2022-12-14T08:09:16.721Z,54.46
2022-12-14T08:11:45.249Z,52.84
2022-12-14T08:14:17.467Z,52.71
2022-12-14T08:16:47.329Z,53.92
2022-12-14T08:19:16.969Z,53.87
2022-12-14T08:21:45.965Z,54.95
2022-12-14T08:24:15.382Z,55.85
2022-12-14T08:26:47.284Z,57.32
2022-12-14T08:29:19.277Z,58.66
2022-12-14T08:31:47.979Z,59.60
2022-12-14T08:34:22.959Z,60.04
2022-12-14T08:36:51.449Z,60.35
2022-12-14T08:39:19.823Z,60.05
2022-12-14T08:41:48.137Z,60.69
2022-12-14T08:44:17.587Z,60.72
2022-12-14T08:46:46.165Z,61.28
2022-12-14T08:49:14.524Z,60.92
2022-12-14T08:51:42.911Z,61.26
2022-12-14T08:54:11.414Z,64.18
2022-12-14T08:56:39.879Z,67.08
2022-12-14T08:59:08.410Z,65.49
2022-12-14T09:01:37.316Z,60.33
2022-12-14T09:04:08.069Z,56.46
2022-12-14T09:06:39.339Z,55.84
2022-12-14T09:09:15.638Z,55.59
2022-12-14T09:11:45.338Z,57.59
2022-12-14T09:14:13.956Z,58.07
2022-12-14T09:16:42.511Z,56.88
2022-12-14T09:19:10.954Z,56.54
2022-12-14T09:21:40.030Z,57.12
2022-12-14T09:24:09.759Z,57.26
2022-12-14T09:26:38.072Z,57.99
2022-12-14T09:29:06.497Z,59.44
2022-12-14T09:31:35.000Z,58.91
2022-12-14T09:34:04.133Z,59.54
2022-12-14T09:36:32.834Z,60.00
2022-12-14T09:39:01.251Z,59.32
2022-12-14T09:41:35.716Z,60.10
2022-12-14T09:44:25.794Z,59.92
2022-12-14T09:47:11.080Z,60.56
2022-12-14T09:49:48.945Z,60.87
2022-12-14T09:52:22.942Z,60.31
2022-12-14T09:54:52.553Z,59.43
2022-12-14T09:57:38.212Z,60.05
2022-12-14T10:00:20.068Z,59.36
2022-12-14T10:03:07.152Z,58.85
2022-12-14T10:05:53.907Z,59.48
2022-12-14T10:08:31.973Z,59.52
2022-12-14T10:11:16.219Z,57.98
2022-12-14T10:14:23.045Z,58.58
2022-12-14T10:17:12.369Z,58.12
2022-12-14T10:19:51.791Z,58.97
2022-12-14T10:22:24.151Z,58.90
2022-12-14T10:25:00.105Z,57.94
2022-12-14T10:27:53.947Z,57.30
2022-12-14T10:30:24.028Z,57.00
2022-12-14T10:33:01.432Z,58.88
2022-12-14T10:35:53.739Z,57.03
2022-12-14T10:38:29.704Z,57.92
2022-12-14T10:41:07.488Z,57.99
2022-12-14T10:43:54.242Z,58.40
2022-12-14T10:46:28.826Z,58.67
2022-12-14T10:49:22.396Z,58.69
2022-12-14T10:52:02.660Z,58.58
2022-12-14T10:54:39.095Z,58.79
2022-12-14T10:57:07.717Z,59.12
2022-12-14T10:59:43.818Z,59.50
2022-12-14T11:02:22.915Z,59.34
2022-12-14T11:04:52.796Z,60.19
2022-12-14T11:07:43.605Z,60.54
2022-12-14T11:10:20.109Z,60.35
2022-12-14T11:13:07.697Z,61.05
2022-12-14T11:15:45.461Z,61.04
2022-12-14T11:18:17.037Z,60.78
2022-12-14T11:20:53.209Z,61.22
2022-12-14T11:23:29.361Z,61.20
2022-12-14T11:26:00.818Z,60.66
2022-12-14T11:28:41.575Z,60.72
2022-12-14T11:31:28.253Z,60.43
2022-12-14T11:33:59.083Z,60.89
2022-12-14T11:36:39.069Z,60.95
2022-12-14T11:39:22.192Z,61.09
2022-12-14T11:42:04.389Z,60.80
2022-12-14T11:44:36.336Z,61.04
2022-12-14T11:47:14.251Z,60.99
2022-12-14T11:49:42.408Z,60.91
2022-12-14T11:52:15.564Z,60.86
2022-12-14T11:54:54.309Z,60.71
2022-12-14T11:57:34.173Z,60.42
2022-12-14T12:00:23.911Z,60.68
2022-12-14T12:03:06.646Z,60.97
2022-12-14T12:05:41.200Z,60.65
2022-12-14T12:08:32.183Z,60.41
2022-12-14T12:11:04.418Z,59.96
2022-12-14T12:13:40.116Z,59.68
2022-12-14T12:16:23.127Z,59.83
2022-12-14T12:19:12.049Z,59.62
2022-12-14T12:21:43.891Z,59.13
2022-12-14T12:24:26.437Z,59.21
2022-12-14T12:27:00.913Z,58.99
2022-12-14T12:29:38.192Z,58.22
2022-12-14T12:32:31.165Z,56.91
2022-12-14T12:35:11.874Z,56.55
2022-12-14T12:37:53.156Z,54.43
2022-12-14T12:40:40.509Z,53.20
2022-12-14T12:43:19.269Z,51.60
2022-12-14T12:46:00.187Z,51.81
2022-12-14T12:48:51.564Z,51.21
2022-12-14T12:51:25.405Z,50.78
2022-12-14T12:54:01.751Z,51.25
2022-12-14T12:56:43.716Z,52.08
2022-12-14T12:59:38.543Z,52.66
2022-12-14T13:02:28.995Z,53.30
2022-12-14T13:05:16.625Z,53.93
2022-12-14T13:07:55.770Z,54.38
2022-12-14T13:10:26.107Z,55.30
2022-12-14T13:13:09.969Z,55.41
2022-12-14T13:15:43.481Z,55.69
2022-12-14T13:18:33.858Z,56.62
2022-12-14T13:21:13.164Z,57.29
2022-12-14T13:23:45.538Z,57.73
2022-12-14T13:26:57.167Z,57.99
2022-12-14T13:29:56.288Z,58.38
2022-12-14T13:32:40.993Z,59.01
2022-12-14T13:35:27.616Z,59.39
2022-12-14T13:38:17.731Z,59.69
2022-12-14T13:41:14.186Z,60.36
2022-12-14T13:44:35.908Z,60.32
2022-12-14T13:47:15.624Z,60.37
2022-12-14T13:52:50.038Z,61.19
2022-12-14T13:55:28.246Z,61.57
2022-12-14T13:58:34.467Z,61.44
2022-12-14T14:01:07.461Z,61.64
2022-12-14T14:03:35.957Z,61.90
2022-12-14T14:06:23.303Z,63.51
2022-12-14T14:08:53.002Z,64.62
2022-12-14T14:11:40.003Z,66.10
2022-12-14T14:14:17.281Z,57.81
2022-12-14T14:16:51.281Z,55.09
2022-12-14T14:19:25.533Z,55.18
2022-12-14T14:22:26.534Z,55.43
2022-12-14T14:24:58.644Z,55.71
2022-12-14T14:27:39.615Z,57.04
2022-12-14T14:30:30.115Z,58.08
2022-12-14T14:33:35.760Z,58.45
2022-12-14T14:35:49.796Z,59.46
2022-12-14T14:38:32.581Z,60.42
2022-12-14T14:41:18.821Z,60.80
2022-12-14T14:43:51.765Z,60.34
2022-12-14T14:46:23.323Z,62.11
2022-12-14T14:48:54.605Z,64.45
2022-12-14T14:51:32.912Z,65.26
2022-12-14T14:57:35.388Z,65.24
2022-12-14T15:00:06.446Z,59.19
2022-12-14T15:02:42.146Z,52.81
2022-12-14T15:08:39.527Z,52.16
2022-12-14T15:11:20.781Z,53.86
2022-12-14T15:13:57.740Z,55.22
2022-12-14T15:16:41.050Z,56.01
2022-12-14T15:19:21.422Z,57.70
2022-12-14T15:22:15.111Z,58.35
2022-12-14T15:24:45.712Z,58.96
2022-12-14T15:27:30.334Z,59.98
2022-12-14T15:30:10.849Z,60.89
2022-12-14T15:32:47.592Z,62.97
2022-12-14T15:35:25.342Z,63.52
2022-12-14T15:38:00.228Z,60.46
2022-12-14T15:40:31.092Z,56.54
2022-12-14T15:43:16.168Z,56.21
2022-12-14T15:45:48.892Z,55.87
2022-12-14T15:48:34.467Z,57.43
2022-12-14T15:51:17.097Z,58.79
2022-12-14T15:53:49.940Z,59.24
2022-12-14T15:56:22.182Z,60.04
2022-12-14T15:58:52.591Z,61.22
2022-12-14T16:01:36.303Z,62.11
2022-12-14T16:04:10.182Z,64.90
2022-12-14T16:07:08.103Z,64.44
2022-12-14T16:09:44.333Z,62.17
2022-12-14T16:12:44.185Z,60.79
2022-12-14T16:15:24.484Z,56.65
2022-12-14T16:18:02.154Z,56.50
2022-12-14T16:20:38.307Z,57.45
2022-12-14T16:23:29.064Z,58.97
2022-12-14T16:26:17.944Z,59.90
2022-12-14T16:28:48.330Z,61.07
2022-12-14T16:31:22.580Z,63.32
2022-12-14T16:34:18.994Z,66.92
2022-12-14T16:37:14.540Z,62.27
2022-12-14T16:39:40.080Z,55.58
2022-12-14T16:42:19.747Z,54.47
2022-12-14T16:44:49.241Z,56.02
2022-12-14T16:47:26.318Z,56.91
2022-12-14T16:50:01.836Z,59.23
2022-12-14T16:52:32.755Z,58.96
2022-12-14T16:55:15.426Z,60.66
2022-12-14T16:58:02.018Z,64.73
2022-12-14T17:00:34.940Z,65.51
2022-12-14T17:03:07.916Z,61.40
2022-12-14T17:05:42.070Z,58.53
2022-12-14T17:08:11.979Z,54.62
2022-12-14T17:10:40.301Z,55.25
2022-12-14T17:13:09.584Z,56.84
2022-12-14T17:16:01.196Z,57.17
2022-12-14T17:18:38.413Z,59.30
2022-12-14T17:21:11.567Z,61.01
2022-12-14T17:23:42.883Z,61.92
2022-12-14T17:26:21.028Z,65.02
2022-12-14T17:28:50.443Z,68.34
2022-12-14T17:31:25.727Z,59.30
2022-12-14T17:33:57.173Z,54.73
2022-12-14T17:36:25.818Z,56.16
2022-12-14T17:38:54.515Z,57.31
2022-12-14T17:41:27.092Z,59.26
2022-12-14T17:43:57.268Z,59.13
2022-12-14T17:46:26.197Z,59.82
2022-12-14T17:48:55.325Z,61.85
2022-12-14T17:51:30.390Z,68.01
2022-12-14T17:54:00.530Z,67.87
2022-12-14T17:56:30.141Z,64.73
2022-12-14T17:58:58.660Z,58.98
2022-12-14T18:01:28.061Z,54.33
2022-12-14T18:03:57.634Z,54.05
2022-12-14T18:06:26.380Z,55.35
2022-12-14T18:08:54.692Z,56.92
2022-12-14T18:11:24.677Z,57.15
2022-12-14T18:13:54.195Z,59.15
2022-12-14T18:16:24.805Z,60.01
2022-12-14T18:18:55.133Z,60.56
2022-12-14T18:21:29.530Z,61.85
2022-12-14T18:23:58.567Z,65.63
2022-12-14T18:26:27.581Z,66.57
2022-12-14T18:28:58.259Z,62.80
2022-12-14T18:31:38.296Z,57.49
2022-12-14T18:34:06.872Z,55.14
2022-12-14T18:36:35.480Z,56.14
2022-12-14T18:39:04.735Z,57.92
2022-12-14T18:41:33.898Z,58.47
2022-12-14T18:44:02.981Z,59.55
2022-12-14T18:46:31.684Z,61.07
2022-12-14T18:49:01.135Z,64.11
2022-12-14T18:51:30.456Z,69.80
2022-12-14T18:54:00.517Z,64.76
2022-12-14T18:56:29.691Z,60.53
2022-12-14T18:59:00.541Z,58.07
2022-12-14T19:01:29.181Z,54.95
2022-12-14T19:03:57.827Z,54.20
2022-12-14T19:09:15.535Z,55.68
2022-12-14T19:11:44.634Z,56.12
2022-12-14T19:14:13.298Z,57.45
2022-12-14T19:16:41.741Z,57.66
2022-12-14T19:19:10.068Z,58.19
2022-12-14T19:21:38.360Z,58.87
2022-12-14T19:24:08.742Z,60.36
2022-12-14T19:26:39.144Z,60.57
2022-12-14T19:29:07.689Z,62.16
2022-12-14T19:31:36.306Z,68.10
2022-12-14T19:34:04.932Z,71.64
2022-12-14T19:36:33.645Z,64.26
2022-12-14T19:39:02.906Z,57.46
2022-12-14T19:41:31.378Z,53.30
2022-12-14T19:43:59.911Z,53.27
2022-12-14T19:46:28.283Z,53.79
2022-12-14T19:48:57.652Z,55.24
2022-12-14T19:51:26.118Z,56.59
2022-12-14T19:53:54.821Z,58.66
2022-12-14T19:56:23.283Z,59.86
2022-12-14T19:58:51.787Z,60.92
2022-12-14T20:01:20.339Z,61.56
2022-12-14T20:03:49.585Z,64.80
2022-12-14T20:06:18.066Z,65.99
2022-12-14T20:08:49.365Z,63.53
2022-12-14T20:11:18.121Z,59.01
2022-12-14T20:13:47.679Z,53.84
2022-12-14T20:16:19.097Z,54.03
2022-12-14T20:18:48.159Z,56.30
2022-12-14T20:21:22.207Z,57.55
2022-12-14T20:23:51.417Z,59.00
2022-12-14T20:26:21.689Z,60.22
2022-12-14T20:28:53.407Z,61.81
2022-12-14T20:31:22.971Z,64.24
2022-12-14T20:33:52.325Z,63.20
2022-12-14T20:37:12.334Z,58.31
2022-12-14T20:39:40.822Z,57.55
2022-12-14T20:42:09.136Z,59.23
2022-12-14T20:44:37.634Z,60.80
2022-12-14T20:47:06.488Z,61.00
2022-12-14T20:49:34.915Z,61.05
2022-12-14T20:52:03.375Z,66.26
2022-12-14T20:54:32.176Z,66.25
2022-12-14T20:57:00.507Z,64.52
2022-12-14T20:59:28.979Z,63.64
2022-12-14T21:01:57.565Z,57.01
2022-12-14T21:04:26.526Z,54.37
2022-12-14T21:06:54.967Z,52.49
2022-12-14T21:09:23.318Z,51.83
2022-12-14T21:12:10.685Z,49.32
2022-12-14T21:14:48.012Z,47.25
2022-12-14T21:17:16.828Z,48.89
2022-12-14T21:19:45.322Z,47.84
2022-12-14T21:22:22.803Z,48.84
2022-12-14T21:25:07.633Z,48.16
2022-12-14T21:27:38.761Z,49.55
2022-12-14T21:30:10.269Z,48.48
2022-12-14T21:32:39.031Z,47.58
2022-12-14T21:35:07.746Z,46.26
2022-12-14T21:37:38.153Z,46.64
2022-12-14T21:40:07.364Z,47.07
2022-12-14T21:42:35.683Z,46.38
2022-12-14T21:45:04.988Z,46.02
2022-12-14T21:47:33.874Z,45.58
2022-12-14T21:50:02.318Z,44.80
2022-12-14T21:52:30.973Z,42.84
2022-12-14T21:54:59.995Z,42.45
2022-12-14T21:57:50.244Z,42.31
2022-12-14T22:00:19.815Z,42.35
2022-12-14T22:02:48.631Z,43.96
2022-12-14T22:05:17.661Z,45.25
2022-12-14T22:07:46.969Z,44.82
2022-12-14T22:10:17.741Z,43.28
2022-12-14T22:12:49.727Z,42.97
2022-12-14T22:15:18.158Z,41.60
2022-12-14T22:17:46.449Z,41.55
2022-12-14T22:20:14.928Z,42.18
2022-12-14T22:22:43.610Z,42.41
2022-12-14T22:25:11.933Z,42.75
2022-12-14T22:27:40.349Z,42.97
2022-12-14T22:30:09.527Z,42.95
2022-12-14T22:32:37.804Z,43.00
2022-12-14T22:35:06.453Z,43.12
2022-12-14T22:37:35.064Z,43.17
2022-12-14T22:40:04.401Z,43.50
2022-12-14T22:42:34.195Z,43.88
2022-12-14T22:45:02.878Z,43.91
2022-12-14T22:47:31.329Z,43.68
2022-12-14T22:49:59.591Z,43.61
2022-12-14T22:52:28.099Z,43.54
2022-12-14T22:54:56.604Z,43.30
2022-12-14T22:57:25.376Z,43.16
2022-12-14T23:00:00.774Z,43.65
2022-12-14T23:02:31.086Z,46.09
2022-12-14T23:04:59.606Z,45.26
2022-12-14T23:07:27.977Z,44.04
2022-12-14T23:10:15.794Z,43.14
2022-12-14T23:13:03.400Z,42.24
2022-12-14T23:15:50.551Z,38.76
2022-12-14T23:18:37.959Z,35.40
2022-12-14T23:21:29.536Z,35.69
2022-12-14T23:24:16.676Z,36.84
2022-12-14T23:27:09.119Z,37.98
2022-12-14T23:29:56.737Z,39.03
2022-12-14T23:32:43.588Z,40.44
2022-12-14T23:35:30.673Z,41.99
2022-12-14T23:38:25.348Z,42.80
2022-12-14T23:41:17.944Z,43.54
2022-12-14T23:44:05.082Z,44.35
2022-12-14T23:57:28.042Z,47.78
